Time;durP1;ratioP1;P1;durP2;ratioP2;P2;SDS_P1;SDS_P2;PMS_P1;PMS_P2;Temp;Humidity;BMP_temperature;BMP_pressure;BME280_temperature;BME280_humidity;BME280_pressure;Samples;Min_cycle;Max_cycle;Signal;HPM_P1;HPM_P2
2021/03/19 00:18:53;;;;;;;1999.90;999.90;;;4.40;99.90;;;;;;5968420;24;20028;-95
2021/03/19 00:50:56;;;;;;;1999.90;999.90;;;4.00;99.90;;;;;;5901742;24;20020;-95
2021/03/19 01:01:36;;;;;;;1999.90;999.90;;;3.90;99.90;;;;;;5835223;24;20106;-93
2021/03/19 01:57:04;;;;;;;1999.90;999.90;;;3.60;99.90;;;;;;5824826;24;20064;-94
2021/03/19 02:45:13;;;;;;;1999.90;999.90;;;3.30;99.90;;;;;;6061824;23;20315;-94
2021/03/19 02:48:40;;;;;;;1999.90;999.90;;;3.40;99.90;;;;;;5984139;24;20032;-95
2021/03/19 02:52:02;;;;;;;1999.90;999.90;;;3.40;99.90;;;;;;6050109;23;20090;-95
2021/03/19 02:55:09;;;;;;;1999.90;999.90;;;3.30;99.90;;;;;;5983371;24;20066;-95
2021/03/19 02:58:09;;;;;;;;;;;;;;;;;;;;;
2021/03/19 03:04:52;;;;;;;1999.90;999.90;;;3.30;99.90;;;;;;5946484;24;20099;-95
2021/03/19 03:07:37;;;;;;;1999.90;999.90;;;3.20;99.90;;;;;;5955035;24;20031;-95
2021/03/19 03:10:39;;;;;;;1999.90;999.90;;;3.20;99.90;;;;;;5953627;24;20061;-94
2021/03/19 03:13:30;;;;;;;1999.90;999.90;;;3.20;99.90;;;;;;5955350;24;20031;-95
2021/03/19 03:16:25;;;;;;;1999.90;999.90;;;3.20;99.90;;;;;;5955895;24;20030;-95
2021/03/19 03:19:34;;;;;;;1999.90;999.90;;;3.20;99.90;;;;;;5977764;24;20100;-95
2021/03/19 03:22:07;;;;;;;1999.90;999.90;;;3.20;99.90;;;;;;5983927;23;20077;-94
2021/03/19 03:24:55;;;;;;;1999.90;999.90;;;3.20;99.90;;;;;;6078931;23;20074;-95
2021/03/19 03:27:51;;;;;;;1999.90;999.90;;;3.10;99.90;;;;;;6097186;23;20118;-95
2021/03/19 03:30:50;;;;;;;1999.90;999.90;;;3.10;99.90;;;;;;6091398;23;20025;-95
2021/03/19 03:33:27;;;;;;;1999.90;999.90;;;3.10;99.90;;;;;;6126288;23;20022;-95
2021/03/19 03:36:13;;;;;;;1999.90;999.90;;;3.00;99.90;;;;;;6125875;23;20025;-94
2021/03/19 03:39:14;;;;;;;1999.90;999.90;;;3.00;99.90;;;;;;6123962;23;20069;-94
2021/03/19 03:42:01;;;;;;;1999.90;999.90;;;3.00;99.90;;;;;;6178029;23;20020;-95
2021/03/19 03:44:59;;;;;;;1999.90;999.90;;;3.00;99.90;;;;;;6241308;23;20125;-96
2021/03/19 03:47:58;;;;;;;1999.90;999.90;;;3.00;99.90;;;;;;6247752;23;20031;-95
2021/03/19 03:50:47;;;;;;;1999.90;999.90;;;3.00;99.90;;;;;;6246814;23;20016;-94
2021/03/19 03:57:45;;;;;;;1999.90;999.90;;;2.90;99.90;;;;;;6164730;23;20039;-94
2021/03/19 04:00:26;;;;;;;1999.90;999.90;;;2.80;99.90;;;;;;6262205;23;20048;-94
2021/03/19 04:03:08;;;;;;;1999.90;999.90;;;2.80;99.90;;;;;;6251598;23;20026;-94
2021/03/19 04:05:43;;;;;;;1999.90;999.90;;;2.70;99.90;;;;;;6250489;23;20034;-95
2021/03/19 04:08:27;;;;;;;1999.90;999.90;;;2.70;99.90;;;;;;6250404;23;20021;-95
2021/03/19 04:11:00;;;;;;;1999.90;999.90;;;2.80;99.90;;;;;;6248029;23;20020;-95
2021/03/19 04:13:39;;;;;;;1999.90;999.90;;;2.70;99.90;;;;;;6248434;23;20047;-94
2021/03/19 04:16:15;;;;;;;1999.90;999.90;;;2.70;99.90;;;;;;6247580;23;20031;-95
2021/03/19 04:18:49;;;;;;;1999.90;999.90;;;2.70;99.90;;;;;;6248483;23;20031;-95
2021/03/19 04:21:23;;;;;;;1999.90;999.90;;;2.70;99.90;;;;;;6247777;23;20103;-94
2021/03/19 04:24:03;;;;;;;1999.90;999.90;;;2.70;99.90;;;;;;6248733;23;20028;-95
2021/03/19 04:26:40;;;;;;;1999.90;999.90;;;2.70;99.90;;;;;;6247945;23;20028;-95
2021/03/19 04:29:12;;;;;;;1999.90;999.90;;;2.60;99.90;;;;;;6248099;23;20032;-94
2021/03/19 04:31:45;;;;;;;1999.90;999.90;;;2.60;99.90;;;;;;6248876;23;20024;-95
2021/03/19 04:34:23;;;;;;;1999.90;999.90;;;2.60;99.90;;;;;;6247724;23;20020;-95
2021/03/19 04:36:54;;;;;;;1999.90;999.90;;;2.50;99.90;;;;;;6248878;23;20079;-94
2021/03/19 04:39:31;;;;;;;1999.90;999.90;;;2.50;99.90;;;;;;6249939;23;20099;-94
2021/03/19 04:42:03;;;;;;;1999.90;999.90;;;2.50;99.90;;;;;;6272705;22;20018;-94
2021/03/19 04:44:39;;;;;;;1999.90;999.90;;;2.50;99.90;;;;;;6265095;23;20383;-94
2021/03/19 04:47:15;;;;;;;1999.90;999.90;;;2.50;99.90;;;;;;6248218;23;20051;-94
2021/03/19 04:49:52;;;;;;;1999.90;999.90;;;2.50;99.90;;;;;;6249942;23;20086;-94
2021/03/19 04:52:22;;;;;;;1999.90;999.90;;;2.40;99.90;;;;;;6250207;23;20020;-94
2021/03/19 04:55:05;;;;;;;;;;;;;;;;;;;;;
2021/03/19 05:00:34;;;;;;;1999.90;999.90;;;2.40;99.90;;;;;;6248564;23;20107;-94
2021/03/19 05:03:03;;;;;;;1999.90;999.90;;;2.40;99.90;;;;;;6249443;23;20021;-94
2021/03/19 05:05:33;;;;;;;1999.90;999.90;;;2.30;99.90;;;;;;6249989;23;20324;-94
2021/03/19 05:08:05;;;;;;;1999.90;999.90;;;2.30;99.90;;;;;;6249494;23;20325;-94
2021/03/19 05:10:40;;;;;;;1999.90;999.90;;;2.30;99.90;;;;;;6250489;23;20447;-95
2021/03/19 05:13:15;;;;;;;1999.90;999.90;;;2.30;99.90;;;;;;6250270;23;20020;-95
2021/03/19 05:15:46;;;;;;;1999.90;999.90;;;2.30;99.90;;;;;;6249747;23;20020;-94
2021/03/19 05:19:01;;;;;;;1999.90;999.90;;;2.20;99.90;;;;;;6249444;23;20028;-94
2021/03/19 05:21:35;;;;;;;1999.90;999.90;;;2.30;99.90;;;;;;6249412;23;20070;-94
2021/03/19 05:24:20;;;;;;;1999.90;999.90;;;2.20;99.90;;;;;;6249385;23;20066;-94
2021/03/19 05:27:00;;;;;;;1999.90;999.90;;;2.30;99.90;;;;;;6248511;22;20329;-94
2021/03/19 05:29:32;;;;;;;1999.90;999.90;;;2.30;99.90;;;;;;6249409;23;20037;-94
2021/03/19 05:32:13;;;;;;;1999.90;999.90;;;2.30;99.90;;;;;;6248857;23;20380;-94
2021/03/19 05:35:12;;;;;;;1999.90;999.90;;;2.30;99.90;;;;;;6249572;23;20075;-94
2021/03/19 05:38:07;;;;;;;1999.90;999.90;;;2.30;99.90;;;;;;6249622;23;20043;-94
2021/03/19 05:40:42;;;;;;;1999.90;999.90;;;2.30;99.90;;;;;;6249401;23;20020;-94
2021/03/19 05:44:00;;;;;;;1999.90;999.90;;;2.30;99.90;;;;;;6243735;23;20052;-95
2021/03/19 05:46:41;;;;;;;1999.90;999.90;;;2.30;99.90;;;;;;6249235;23;20027;-94
2021/03/19 05:49:40;;;;;;;1999.90;999.90;;;2.30;99.90;;;;;;6248958;23;20481;-94
2021/03/19 05:52:23;;;;;;;1999.90;999.90;;;2.40;99.90;;;;;;6249699;23;20446;-94
2021/03/19 05:55:18;;;;;;;1999.90;999.90;;;2.30;99.90;;;;;;6249526;23;20024;-95
2021/03/19 05:57:57;;;;;;;1999.90;999.90;;;2.40;99.90;;;;;;6248985;23;20103;-94
2021/03/19 06:00:41;;;;;;;1999.90;999.90;;;2.40;99.90;;;;;;6249101;23;20024;-94
2021/03/19 06:03:17;;;;;;;1999.90;999.90;;;2.40;99.90;;;;;;6249465;23;20483;-94
2021/03/19 06:06:00;;;;;;;1999.90;999.90;;;2.40;99.90;;;;;;6249787;23;20020;-93
2021/03/19 06:08:31;;;;;;;1999.90;999.90;;;2.40;99.90;;;;;;6249390;23;20028;-94
2021/03/19 06:11:18;;;;;;;1999.90;999.90;;;2.40;99.90;;;;;;6248814;23;20020;-94
2021/03/19 06:14:01;;;;;;;1999.90;999.90;;;2.40;99.90;;;;;;6249616;23;20042;-93
2021/03/19 06:16:38;;;;;;;1999.90;999.90;;;2.40;99.90;;;;;;6249248;23;20020;-94
2021/03/19 06:19:27;;;;;;;1999.90;999.90;;;2.40;99.90;;;;;;6249108;22;20020;-94
2021/03/19 06:22:21;;;;;;;1999.90;999.90;;;2.40;99.90;;;;;;6248864;23;20020;-93
2021/03/19 06:25:17;;;;;;;1999.90;999.90;;;2.40;99.90;;;;;;6249233;23;20115;-93
2021/03/19 06:27:53;;;;;;;1999.90;999.90;;;2.40;99.90;;;;;;6248906;22;20020;-93
2021/03/19 06:30:27;;;;;;;1999.90;999.90;;;2.40;99.90;;;;;;6248807;23;20027;-92
2021/03/19 06:33:04;;;;;;;1999.90;999.90;;;2.50;99.90;;;;;;6249251;23;20103;-93
2021/03/19 06:35:36;;;;;;;1999.90;999.90;;;2.50;99.90;;;;;;6249169;23;20028;-92
2021/03/19 06:38:25;;;;;;;1999.90;999.90;;;2.40;99.90;;;;;;6249171;23;20436;-93
2021/03/19 06:40:54;;;;;;;1999.90;999.90;;;2.50;99.90;;;;;;6248224;23;20359;-93
2021/03/19 06:43:25;;;;;;;1999.90;999.90;;;2.50;99.90;;;;;;6249037;23;20020;-93
2021/03/19 06:46:32;;;;;;;1999.90;999.90;;;2.50;99.90;;;;;;6249129;23;20024;-93
2021/03/19 06:49:06;;;;;;;1999.90;999.90;;;2.50;99.90;;;;;;6249870;23;20031;-94
2021/03/19 06:51:42;;;;;;;1999.90;999.90;;;2.60;99.90;;;;;;6249657;23;20170;-93
2021/03/19 06:54:45;;;;;;;1999.90;999.90;;;2.50;99.90;;;;;;6250828;23;20024;-92
2021/03/19 06:57:19;;;;;;;1999.90;999.90;;;2.60;99.90;;;;;;6249368;23;20024;-93
2021/03/19 06:59:49;;;;;;;1999.90;999.90;;;2.60;99.90;;;;;;6249243;23;20313;-93
2021/03/19 07:02:52;;;;;;;1999.90;999.90;;;2.60;99.90;;;;;;6250641;23;20031;-94
2021/03/19 07:05:45;;;;;;;1999.90;999.90;;;2.70;99.90;;;;;;6249879;23;20032;-93
2021/03/19 07:08:41;;;;;;;1999.90;999.90;;;2.70;99.90;;;;;;6257995;23;20023;-93
2021/03/19 07:11:38;;;;;;;1999.90;999.90;;;2.80;99.90;;;;;;6258306;23;20020;-93
2021/03/19 07:14:43;;;;;;;1999.90;999.90;;;2.80;99.90;;;;;;6249986;23;20098;-94
2021/03/19 07:17:25;;;;;;;1999.90;999.90;;;2.90;99.90;;;;;;6157676;23;20028;-94
2021/03/19 07:20:22;;;;;;;1999.90;999.90;;;3.00;99.90;;;;;;6160620;23;20033;-93
2021/03/19 07:23:07;;;;;;;1999.90;999.90;;;3.10;99.90;;;;;;6248943;23;20043;-95
2021/03/19 07:25:53;;;;;;;1999.90;999.90;;;3.10;99.90;;;;;;6248535;23;20028;-95
2021/03/19 07:28:47;;;;;;;1999.90;999.90;;;3.20;99.90;;;;;;6248728;23;20036;-93
2021/03/19 07:31:39;;;;;;;1999.90;999.90;;;3.30;99.90;;;;;;6248980;23;20020;-93
2021/03/19 07:34:36;;;;;;;1999.90;999.90;;;3.40;99.90;;;;;;6260458;23;20024;-94
2021/03/19 07:37:29;;;;;;;1999.90;999.90;;;3.40;99.90;;;;;;6267066;23;20035;-93
2021/03/19 07:40:27;;;;;;;1999.90;999.90;;;3.50;99.90;;;;;;6261257;23;20024;-95
2021/03/19 07:43:23;;;;;;;1999.90;999.90;;;3.60;99.90;;;;;;6249646;23;20068;-94
2021/03/19 07:46:16;;;;;;;1999.90;999.90;;;3.70;99.90;;;;;;6255274;23;20024;-94
2021/03/19 07:49:30;;;;;;;1999.90;999.90;;;3.80;99.90;;;;;;6247697;23;20026;-94
2021/03/19 07:52:50;;;;;;;1999.90;999.90;;;3.90;99.90;;;;;;6247070;23;20020;-94
2021/03/19 07:56:05;;;;;;;1999.90;999.90;;;4.00;99.90;;;;;;6247696;23;20031;-94
2021/03/19 07:59:10;;;;;;;1999.90;999.90;;;4.00;99.90;;;;;;6247353;23;20027;-94
2021/03/19 08:02:02;;;;;;;1999.90;999.90;;;4.10;99.90;;;;;;6247497;23;20020;-94
2021/03/19 08:04:37;;;;;;;1999.90;999.90;;;4.10;99.90;;;;;;6248338;23;20027;-93
2021/03/19 08:07:19;;;;;;;1999.90;999.90;;;4.20;99.90;;;;;;6247485;23;20020;-94
2021/03/19 08:17:37;;;;;;;1999.90;999.90;;;4.30;99.90;;;;;;6244995;23;20460;-95
2021/03/19 08:25:03;;;;;;;;;;;;;;;;;;;;;
2021/03/19 08:27:54;;;;;;;1999.90;999.90;;;4.60;99.90;;;;;;6152588;23;20029;-93
2021/03/19 08:30:37;;;;;;;1999.90;999.90;;;4.70;99.90;;;;;;6175681;23;20024;-94
2021/03/19 08:33:42;;;;;;;1999.90;999.90;;;4.80;99.90;;;;;;6249431;23;20028;-95
2021/03/19 08:36:20;;;;;;;1999.90;999.90;;;4.80;99.90;;;;;;6228862;23;20351;-95
2021/03/19 08:38:53;;;;;;;1999.90;999.90;;;4.80;99.90;;;;;;6251533;23;20107;-94
2021/03/19 08:49:11;;;;;;;1999.90;999.90;;;5.00;99.90;;;;;;6170493;23;20373;-95
2021/03/19 08:52:47;;;;;;;1999.90;999.90;;;5.10;99.90;;;;;;6135840;23;20036;-94
2021/03/19 09:08:14;;;;;;;1999.90;999.90;;;5.30;99.90;;;;;;5839919;24;20064;-95
2021/03/19 09:11:12;;;;;;;1999.90;999.90;;;5.40;99.90;;;;;;5920218;24;20025;-94
2021/03/19 09:14:16;;;;;;;1999.90;999.90;;;5.40;99.90;;;;;;5980976;23;20035;-95
2021/03/19 09:17:27;;;;;;;1999.90;999.90;;;5.40;99.90;;;;;;6055967;23;20101;-94
2021/03/19 09:20:01;;;;;;;1999.90;999.90;;;5.40;99.90;;;;;;6129495;23;20100;-94
2021/03/19 09:25:51;;;;;;;1999.90;999.90;;;5.60;99.90;;;;;;6037174;23;20028;-94
2021/03/19 09:28:42;;;;;;;1999.90;999.90;;;5.60;99.90;;;;;;6127192;23;20026;-93
2021/03/19 09:31:36;;;;;;;1999.90;999.90;;;5.60;99.90;;;;;;6157533;23;20018;-94
2021/03/19 09:34:18;;;;;;;1999.90;999.90;;;5.60;99.90;;;;;;6156776;23;20120;-93
2021/03/19 09:37:17;;;;;;;1999.90;999.90;;;5.60;99.90;;;;;;6156770;23;20025;-94
2021/03/19 09:40:14;;;;;;;1999.90;999.90;;;5.60;99.90;;;;;;6133044;23;20458;-93
2021/03/19 09:42:54;;;;;;;1999.90;999.90;;;5.70;99.90;;;;;;6156461;23;20457;-94
2021/03/19 09:45:38;;;;;;;1999.90;999.90;;;5.70;99.90;;;;;;6228379;23;20058;-94
2021/03/19 09:59:20;;;;;;;1999.90;999.90;;;5.90;99.90;;;;;;6014567;23;20020;-94
2021/03/19 10:02:29;;;;;;;1999.90;999.90;;;5.90;99.90;;;;;;6174437;23;20106;-93
2021/03/19 10:05:08;;;;;;;1999.90;999.90;;;5.90;99.90;;;;;;6248750;23;20027;-95
2021/03/19 10:08:00;;;;;;;1999.90;999.90;;;6.00;99.90;;;;;;6248953;23;20024;-94
2021/03/19 10:10:32;;;;;;;1999.90;999.90;;;6.00;99.90;;;;;;6259380;23;20032;-94
2021/03/19 10:13:08;;;;;;;1999.90;999.90;;;6.00;99.90;;;;;;6255518;23;20020;-93
2021/03/19 10:15:36;;;;;;;1999.90;999.90;;;6.10;99.90;;;;;;6253898;23;20020;-94
2021/03/19 10:18:06;;;;;;;1999.90;999.90;;;6.10;99.90;;;;;;6255951;23;20031;-94
2021/03/19 10:25:29;;;;;;;1999.90;999.90;;;6.20;99.90;;;;;;6187179;23;20027;-94
2021/03/19 10:28:08;;;;;;;1999.90;999.90;;;6.30;99.90;;;;;;6186439;23;20043;-94
2021/03/19 10:34:33;;;;;;;1999.90;999.90;;;6.40;99.90;;;;;;6185281;23;20032;-95
2021/03/19 10:37:52;;;;;;;1999.90;999.90;;;6.40;99.90;;;;;;6161034;23;20099;-95
2021/03/19 10:41:13;;;;;;;1999.90;999.90;;;6.40;99.90;;;;;;6186317;23;20088;-94
2021/03/19 10:44:19;;;;;;;1999.90;999.90;;;6.40;99.90;;;;;;6249510;23;20027;-94
2021/03/19 10:47:31;;;;;;;1999.90;999.90;;;6.30;99.90;;;;;;6247603;23;20026;-94
2021/03/19 10:50:30;;;;;;;1999.90;999.90;;;6.30;99.90;;;;;;6247648;23;20024;-93
2021/03/19 10:53:17;;;;;;;1999.90;999.90;;;6.40;99.90;;;;;;6248817;23;20058;-94
2021/03/19 10:55:51;;;;;;;1999.90;999.90;;;6.40;99.90;;;;;;6248849;23;20079;-93
2021/03/19 10:59:15;;;;;;;1999.90;999.90;;;6.50;99.90;;;;;;6249695;23;20159;-95
2021/03/19 11:02:29;;;;;;;1999.90;999.90;;;6.60;99.90;;;;;;6250755;23;20448;-95
2021/03/19 11:05:17;;;;;;;1999.90;999.90;;;6.70;99.90;;;;;;6257962;23;20027;-95
2021/03/19 11:08:16;;;;;;;1999.90;999.90;;;6.70;99.90;;;;;;6257235;23;20027;-95
2021/03/19 11:11:07;;;;;;;1999.90;999.90;;;6.80;99.90;;;;;;6239865;23;20024;-94
2021/03/19 11:14:02;;;;;;;1999.90;999.90;;;6.80;99.90;;;;;;6248671;23;20020;-93
2021/03/19 11:16:39;;;;;;;1999.90;999.90;;;6.90;99.90;;;;;;6248111;23;20432;-95
2021/03/19 11:20:00;;;;;;;1999.90;999.90;;;6.90;99.90;;;;;;6248048;23;20020;-94
2021/03/19 11:25:59;;;;;;;1999.90;999.90;;;7.10;99.90;;;;;;6248530;23;20467;-94
2021/03/19 11:29:22;;;;;;;1999.90;999.90;;;7.10;99.90;;;;;;6248437;23;20074;-94
2021/03/19 11:32:42;;;;;;;1999.90;999.90;;;7.10;99.90;;;;;;6248586;23;20096;-94
2021/03/19 11:35:32;;;;;;;1999.90;999.90;;;7.20;99.90;;;;;;6249225;23;20333;-95
2021/03/19 11:38:46;;;;;;;1999.90;999.90;;;7.20;99.90;;;;;;6248306;23;20020;-94
2021/03/19 11:41:36;;;;;;;1999.90;999.90;;;7.30;99.90;;;;;;6233565;23;20020;-94
2021/03/19 11:44:42;;;;;;;1999.90;999.90;;;7.40;99.90;;;;;;6248375;23;20502;-95
2021/03/19 11:47:40;;;;;;;1999.90;999.90;;;7.40;99.90;;;;;;6248767;23;20099;-94
2021/03/19 11:50:34;;;;;;;1999.90;999.90;;;7.50;99.90;;;;;;6249533;23;20028;-94
2021/03/19 11:53:18;;;;;;;1999.90;999.90;;;7.50;99.90;;;;;;6249185;23;20020;-94
2021/03/19 11:56:05;;;;;;;1999.90;999.90;;;7.60;99.90;;;;;;6250070;23;20024;-95
2021/03/19 12:02:02;;;;;;;1999.90;999.90;;;7.60;99.90;;;;;;6237479;23;20027;-94
2021/03/19 12:04:51;;;;;;;1999.90;999.90;;;7.70;99.90;;;;;;6250407;23;20024;-95
2021/03/19 12:07:27;;;;;;;1999.90;999.90;;;7.80;99.90;;;;;;6250432;23;20024;-94
2021/03/19 12:24:24;;;;;;;1999.90;999.90;;;8.00;99.50;;;;;;6248980;23;20104;-94
2021/03/19 12:27:40;;;;;;;1999.90;999.90;;;8.00;98.90;;;;;;6239889;23;20098;-95
2021/03/19 12:30:38;;;;;;;1999.90;999.90;;;8.00;99.40;;;;;;6247586;23;20031;-94
2021/03/19 12:33:26;;;;;;;1999.90;999.90;;;8.10;99.60;;;;;;6248532;23;20070;-94
2021/03/19 12:40:06;;;;;;;1999.90;999.90;;;8.30;99.90;;;;;;6062570;23;20550;-94
2021/03/19 12:42:43;;;;;;;1999.90;999.90;;;8.40;98.70;;;;;;6128692;23;20017;-94
2021/03/19 12:46:00;;;;;;;1999.90;999.90;;;8.40;98.50;;;;;;6136895;23;20101;-94
2021/03/19 12:49:15;;;;;;;1999.90;999.90;;;8.50;98.60;;;;;;6142431;23;20049;-95
2021/03/19 13:03:19;;;;;;;1999.90;999.90;;;9.00;97.30;;;;;;6038476;23;20057;-95
2021/03/19 13:17:45;;;;;;;1999.90;999.90;;;9.50;98.20;;;;;;6051495;23;20026;-96
2021/03/19 13:21:16;;;;;;;1999.90;999.90;;;9.70;97.50;;;;;;6099506;23;20087;-95
2021/03/19 14:14:36;;;;;;;1999.90;999.90;;;12.20;89.80;;;;;;6042917;23;20087;-96
2021/03/19 14:24:42;;;;;;;1999.90;999.90;;;12.20;90.80;;;;;;6040062;23;20458;-95
2021/03/19 14:35:48;;;;;;;1999.90;999.90;;;12.50;91.70;;;;;;6073262;23;20058;-96
2021/03/19 14:51:06;;;;;;;1999.90;999.90;;;12.80;91.10;;;;;;6218125;23;20067;-96
2021/03/19 15:47:55;;;;;;;1999.90;999.90;;;14.50;83.00;;;;;;6186354;23;20004;-96
2021/03/19 16:09:26;;;;;;;;;;;;;;;;;;;;;
2021/03/19 16:16:24;;;;;;;;;;;14.60;72.00;;;;;;6129216;23;20050;-96
2021/03/19 16:18:53;;;;;;;1999.90;999.90;;;14.30;72.50;;;;;;6127240;23;19916;-96
2021/03/19 16:25:13;;;;;;;1999.90;999.90;;;14.20;76.40;;;;;;6188665;23;20055;-96
2021/03/19 16:40:07;;;;;;;1999.90;999.90;;;13.90;73.70;;;;;;6190246;23;20436;-96
2021/03/19 16:58:27;;;;;;;;;;;;;;;;;;;;;
2021/03/19 17:05:19;;;;;;;1999.90;999.90;;;10.60;83.00;;;;;;6104930;23;20081;-96
2021/03/19 17:07:48;;;;;;;1999.90;999.90;;;10.20;89.50;;;;;;6129319;23;20029;-96
2021/03/19 17:18:07;;;;;;;1999.90;999.90;;;9.20;95.50;;;;;;6098691;23;20030;-96
2021/03/19 17:20:41;;;;;;;1999.90;999.90;;;9.00;97.30;;;;;;6098850;23;20382;-96
2021/03/19 17:43:12;;;;;;;1999.90;999.90;;;8.00;99.90;;;;;;5967669;24;20070;-95
2021/03/19 17:56:53;;;;;;;1999.90;999.90;;;7.50;99.90;;;;;;5918492;23;20016;-96
2021/03/19 18:00:15;;;;;;;1999.90;999.90;;;7.40;99.90;;;;;;6070655;23;20043;-95
2021/03/19 18:10:59;;;;;;;1999.90;999.90;;;7.20;99.90;;;;;;5959581;23;20535;-96
2021/03/19 18:17:29;;;;;;;1999.90;999.90;;;7.00;99.90;;;;;;6040732;23;20037;-96
2021/03/19 18:23:29;;;;;;;1999.90;999.90;;;6.90;99.90;;;;;;6071516;23;20033;-96
2021/03/19 18:26:05;;;;;;;1999.90;999.90;;;6.80;99.90;;;;;;6071544;23;20042;-96
2021/03/19 18:28:43;;;;;;;1999.90;999.90;;;6.80;99.90;;;;;;6073968;23;20022;-96
2021/03/19 18:38:01;;;;;;;1999.90;999.90;;;6.60;99.90;;;;;;5984950;23;20137;-96
2021/03/19 18:40:31;;;;;;;1999.90;999.90;;;6.50;99.90;;;;;;6129577;23;20026;-96
2021/03/19 18:43:05;;;;;;;1999.90;999.90;;;6.50;99.90;;;;;;6130105;23;20394;-96
2021/03/19 18:45:49;;;;;;;1999.90;999.90;;;6.50;99.90;;;;;;6044238;23;20023;-96
2021/03/19 18:49:13;;;;;;;1999.90;999.90;;;6.40;99.90;;;;;;6116741;23;20048;-95
2021/03/19 19:49:17;;;;;;;;;;;5.70;99.90;;;;;;6169987;23;20011;-95
2021/03/19 19:51:45;;;;;;;1999.90;999.90;;;5.60;99.90;;;;;;6222845;23;19915;-95
2021/03/19 19:54:30;;;;;;;1999.90;999.90;;;5.50;99.90;;;;;;6222574;23;20324;-96
2021/03/19 19:57:05;;;;;;;1999.90;999.90;;;5.50;99.90;;;;;;6224087;23;20032;-94
2021/03/19 19:59:36;;;;;;;1999.90;999.90;;;5.50;99.90;;;;;;6228048;23;20029;-96
2021/03/19 20:02:04;;;;;;;1999.90;999.90;;;5.50;99.90;;;;;;6235004;23;20021;-95
2021/03/19 20:04:51;;;;;;;1999.90;999.90;;;5.40;99.90;;;;;;6226850;23;20103;-92
2021/03/19 20:10:41;;;;;;;;;;;;;;;;;;;;;
2021/03/19 20:14:03;;;;;;;1999.90;999.90;;;5.40;99.90;;;;;;6157018;23;20032;-95
2021/03/19 20:16:55;;;;;;;1999.90;999.90;;;5.40;99.90;;;;;;6205780;23;20021;-95
2021/03/19 22:02:17;;;;;;;1999.90;999.90;;;4.80;99.90;;;;;;5907416;23;20568;-95
2021/03/19 23:04:49;;;;;;;1999.90;999.90;;;4.40;99.90;;;;;;6218956;23;20108;-95
2021/03/19 23:15:14;;;;;;;1999.90;999.90;;;4.30;99.90;;;;;;6223621;22;20038;-96
